createdAt,value
2022-08-26T00:01:44.243Z,22.40
2022-08-26T00:04:12.685Z,22.40
2022-08-26T00:06:42.342Z,22.40
2022-08-26T00:09:09.988Z,22.40
2022-08-26T00:11:37.291Z,22.40
2022-08-26T00:14:04.384Z,22.50
2022-08-26T00:16:32.127Z,22.50
2022-08-26T00:18:59.287Z,22.40
2022-08-26T00:21:26.582Z,22.40
2022-08-26T00:23:54.463Z,22.50
2022-08-26T00:26:21.416Z,22.50
2022-08-26T00:28:49.543Z,22.40
2022-08-26T00:31:17.252Z,22.50
2022-08-26T00:33:44.536Z,22.40
2022-08-26T00:36:19.989Z,22.40
2022-08-26T00:38:48.108Z,22.40
2022-08-26T00:41:15.415Z,22.40
2022-08-26T00:43:47.469Z,22.40
2022-08-26T00:46:22.576Z,22.50
2022-08-26T00:48:52.199Z,22.50
2022-08-26T00:51:23.212Z,22.40
2022-08-26T00:54:01.942Z,22.40
2022-08-26T00:56:31.226Z,22.40
2022-08-26T00:59:03.206Z,22.40
2022-08-26T01:01:31.396Z,22.40
2022-08-26T01:04:00.006Z,22.40
2022-08-26T01:06:28.472Z,22.40
2022-08-26T01:08:56.472Z,22.30
2022-08-26T01:11:25.206Z,22.30
2022-08-26T01:13:56.161Z,22.30
2022-08-26T01:16:24.859Z,22.30
2022-08-26T01:18:59.654Z,22.30
2022-08-26T01:21:40.607Z,22.30
2022-08-26T01:24:10.317Z,22.30
2022-08-26T01:26:41.431Z,22.30
2022-08-26T01:29:20.095Z,22.30
2022-08-26T01:31:56.954Z,22.20
2022-08-26T01:34:28.105Z,22.20
2022-08-26T01:37:02.817Z,22.20
2022-08-26T01:39:32.009Z,22.20
2022-08-26T01:42:03.007Z,22.20
2022-08-26T01:44:34.136Z,22.20
2022-08-26T01:47:02.163Z,22.20
2022-08-26T01:49:33.512Z,22.20
2022-08-26T01:52:04.457Z,22.20
2022-08-26T01:54:32.434Z,22.20
2022-08-26T01:57:00.862Z,22.20
2022-08-26T01:59:29.839Z,22.20
2022-08-26T02:01:57.038Z,22.20
2022-08-26T02:04:30.925Z,22.20
2022-08-26T02:06:58.239Z,22.20
2022-08-26T02:09:26.840Z,22.20
2022-08-26T02:11:54.531Z,22.20
2022-08-26T02:14:26.806Z,22.10
2022-08-26T02:16:55.247Z,22.10
2022-08-26T02:19:35.196Z,22.10
2022-08-26T02:22:06.053Z,22.00
2022-08-26T02:24:56.602Z,22.00
2022-08-26T02:27:35.049Z,22.00
2022-08-26T02:30:12.396Z,22.00
2022-08-26T02:32:41.278Z,21.90
2022-08-26T02:35:10.985Z,22.00
2022-08-26T02:37:38.114Z,22.00
2022-08-26T02:40:08.270Z,22.00
2022-08-26T02:42:35.647Z,21.90
2022-08-26T02:45:02.598Z,21.90
2022-08-26T02:47:29.550Z,21.90
2022-08-26T02:49:59.544Z,21.90
2022-08-26T02:52:27.112Z,21.90
2022-08-26T02:54:55.192Z,21.90
2022-08-26T02:57:22.263Z,21.90
2022-08-26T02:59:49.408Z,22.00
2022-08-26T03:02:17.442Z,21.90
2022-08-26T03:04:57.361Z,21.90
2022-08-26T03:07:24.760Z,21.90
2022-08-26T03:09:52.980Z,21.80
2022-08-26T03:12:20.395Z,21.80
2022-08-26T03:14:48.070Z,21.80
2022-08-26T03:17:15.943Z,21.80
2022-08-26T03:19:42.841Z,21.90
2022-08-26T03:22:09.761Z,21.80
2022-08-26T03:24:38.044Z,21.80
2022-08-26T03:27:07.443Z,21.80
2022-08-26T03:29:53.186Z,21.70
2022-08-26T03:32:20.795Z,21.70
2022-08-26T03:34:47.771Z,21.70
2022-08-26T03:37:14.769Z,21.60
2022-08-26T03:39:41.843Z,21.60
2022-08-26T03:42:08.682Z,21.60
2022-08-26T03:44:38.090Z,21.60
2022-08-26T03:47:09.172Z,21.60
2022-08-26T03:49:36.159Z,21.60
2022-08-26T03:52:04.555Z,21.60
2022-08-26T03:54:32.870Z,21.60
2022-08-26T03:57:00.043Z,21.60
2022-08-26T03:59:27.799Z,21.60
2022-08-26T04:01:54.930Z,21.60
2022-08-26T04:04:22.838Z,21.60
2022-08-26T04:06:57.288Z,21.60
2022-08-26T04:09:24.405Z,21.60
2022-08-26T04:11:53.475Z,21.60
2022-08-26T04:14:23.689Z,21.60
2022-08-26T04:16:52.275Z,21.50
2022-08-26T04:19:20.968Z,21.50
2022-08-26T04:21:50.983Z,21.40
2022-08-26T04:24:17.850Z,21.40
2022-08-26T04:26:45.068Z,21.40
2022-08-26T04:29:15.680Z,21.40
2022-08-26T04:31:42.718Z,21.40
2022-08-26T04:34:11.049Z,21.40
2022-08-26T04:36:38.069Z,21.40
2022-08-26T04:39:05.517Z,21.40
2022-08-26T04:41:33.508Z,21.40
2022-08-26T04:44:01.765Z,21.40
2022-08-26T04:46:29.304Z,21.40
2022-08-26T04:48:56.375Z,21.40
2022-08-26T04:51:27.925Z,21.40
2022-08-26T04:53:57.052Z,21.40
2022-08-26T04:56:25.888Z,21.40
2022-08-26T04:58:52.895Z,21.40
2022-08-26T05:01:20.670Z,21.40
2022-08-26T05:03:48.717Z,21.40
2022-08-26T05:06:16.565Z,21.40
2022-08-26T05:08:46.098Z,21.40
2022-08-26T05:11:13.518Z,21.50
2022-08-26T05:13:40.487Z,21.50
2022-08-26T05:16:11.594Z,21.50
2022-08-26T05:18:39.693Z,21.50
2022-08-26T05:21:07.390Z,21.50
2022-08-26T05:23:35.955Z,21.50
2022-08-26T05:26:08.039Z,21.50
2022-08-26T05:28:35.207Z,21.50
2022-08-26T05:31:10.543Z,21.50
2022-08-26T05:33:38.145Z,21.50
2022-08-26T05:36:15.235Z,21.50
2022-08-26T05:38:43.995Z,21.50
2022-08-26T05:41:27.546Z,21.60
2022-08-26T05:44:02.742Z,21.60
2022-08-26T05:46:29.850Z,21.60
2022-08-26T05:48:57.540Z,21.70
2022-08-26T05:51:26.174Z,21.70
2022-08-26T05:53:54.786Z,21.70
2022-08-26T05:56:27.835Z,21.70
2022-08-26T05:58:58.605Z,21.80
2022-08-26T06:01:28.399Z,21.80
2022-08-26T06:04:01.730Z,21.70
2022-08-26T06:06:34.507Z,21.80
2022-08-26T06:09:02.787Z,21.80
2022-08-26T06:11:32.432Z,21.80
2022-08-26T06:14:04.160Z,21.90
2022-08-26T06:16:34.620Z,22.00
2022-08-26T06:19:03.368Z,22.00
2022-08-26T06:21:39.294Z,22.00
2022-08-26T06:24:32.858Z,22.10
2022-08-26T06:27:02.526Z,22.10
2022-08-26T06:29:33.244Z,22.10
2022-08-26T06:32:00.887Z,22.20
2022-08-26T06:34:31.513Z,22.20
2022-08-26T06:37:02.213Z,22.20
2022-08-26T06:39:30.947Z,22.20
2022-08-26T06:41:58.965Z,22.20
2022-08-26T06:44:26.813Z,22.30
2022-08-26T06:46:53.984Z,22.40
2022-08-26T06:49:25.734Z,22.40
2022-08-26T06:51:58.223Z,22.40
2022-08-26T06:54:25.946Z,22.40
2022-08-26T06:56:52.925Z,22.40
2022-08-26T06:59:21.807Z,22.50
2022-08-26T07:01:49.701Z,22.50
2022-08-26T07:04:21.872Z,22.50
2022-08-26T07:06:52.617Z,22.50
2022-08-26T07:09:20.994Z,22.50
2022-08-26T07:11:48.213Z,22.60
2022-08-26T07:14:19.393Z,22.60
2022-08-26T07:16:49.076Z,22.60
2022-08-26T07:19:31.185Z,22.60
2022-08-26T07:22:04.223Z,22.60
2022-08-26T07:24:37.374Z,22.60
2022-08-26T07:27:07.211Z,22.50
2022-08-26T07:29:37.350Z,22.60
2022-08-26T07:32:04.890Z,22.60
2022-08-26T07:34:33.181Z,22.60
2022-08-26T07:37:00.991Z,22.60
2022-08-26T07:39:28.261Z,22.50
2022-08-26T07:41:59.672Z,22.50
2022-08-26T07:44:27.245Z,22.50
2022-08-26T07:46:54.206Z,22.40
2022-08-26T07:49:23.618Z,22.40
2022-08-26T07:51:51.337Z,22.40
2022-08-26T07:54:18.851Z,22.50
2022-08-26T07:56:46.510Z,22.50
2022-08-26T07:59:15.048Z,22.50
2022-08-26T08:01:45.051Z,22.50
2022-08-26T08:04:14.360Z,22.50
2022-08-26T08:06:41.856Z,22.50
2022-08-26T08:09:12.649Z,22.50
2022-08-26T08:11:39.593Z,22.50
2022-08-26T08:14:08.534Z,22.50
2022-08-26T08:16:45.810Z,22.60
2022-08-26T08:19:15.243Z,22.50
2022-08-26T08:21:43.541Z,22.50
2022-08-26T08:24:11.503Z,22.50
2022-08-26T08:26:38.535Z,22.50
2022-08-26T08:29:08.331Z,22.50
2022-08-26T08:31:56.810Z,22.60
2022-08-26T08:34:25.775Z,22.60
2022-08-26T08:36:53.847Z,22.60
2022-08-26T08:39:22.200Z,22.70
2022-08-26T08:42:16.797Z,22.80
2022-08-26T08:44:52.009Z,22.70
2022-08-26T08:48:00.824Z,22.60
2022-08-26T08:50:35.018Z,22.60
2022-08-26T08:53:18.646Z,22.60
2022-08-26T08:55:57.429Z,22.60
2022-08-26T08:58:59.219Z,22.70
2022-08-26T09:01:30.634Z,22.70
2022-08-26T09:04:43.501Z,22.70
2022-08-26T09:07:23.430Z,22.70
2022-08-26T09:09:59.895Z,22.70
2022-08-26T09:12:33.221Z,22.70
2022-08-26T09:15:20.609Z,22.70
2022-08-26T09:18:42.883Z,22.60
2022-08-26T09:21:17.933Z,22.60
2022-08-26T09:23:49.250Z,22.60
2022-08-26T09:26:22.721Z,22.60
2022-08-26T09:29:03.084Z,22.60
2022-08-26T09:31:34.147Z,22.60
2022-08-26T09:34:21.033Z,22.60
2022-08-26T09:36:53.622Z,22.60
2022-08-26T09:39:23.993Z,22.60
2022-08-26T09:42:11.153Z,22.70
2022-08-26T09:44:57.618Z,22.70
2022-08-26T09:47:31.643Z,22.70
2022-08-26T09:50:19.771Z,22.70
2022-08-26T09:52:47.458Z,22.70
2022-08-26T09:55:20.501Z,22.70
2022-08-26T09:57:51.402Z,22.70
2022-08-26T10:00:31.588Z,22.70
2022-08-26T10:03:00.964Z,22.70
2022-08-26T10:05:36.548Z,22.70
2022-08-26T10:08:30.425Z,22.70
2022-08-26T10:11:02.040Z,22.70
2022-08-26T10:13:32.040Z,22.70
2022-08-26T10:16:20.613Z,22.70
2022-08-26T10:19:13.088Z,22.60
2022-08-26T10:21:59.680Z,22.50
2022-08-26T10:24:38.070Z,22.40
2022-08-26T10:27:37.001Z,22.40
2022-08-26T10:30:12.573Z,22.40
2022-08-26T10:32:51.678Z,22.40
2022-08-26T10:35:19.721Z,22.30
2022-08-26T10:37:56.617Z,22.30
2022-08-26T10:40:29.791Z,22.30
2022-08-26T10:43:11.340Z,22.30
2022-08-26T10:45:53.594Z,22.40
2022-08-26T10:48:26.787Z,22.40
2022-08-26T10:51:04.382Z,22.40
2022-08-26T10:54:11.817Z,22.40
2022-08-26T10:57:16.015Z,22.50
2022-08-26T11:00:32.089Z,22.50
2022-08-26T11:03:22.777Z,22.40
2022-08-26T11:06:18.518Z,22.40
2022-08-26T11:09:08.727Z,22.40
2022-08-26T11:11:41.862Z,22.50
2022-08-26T11:14:38.543Z,22.50
2022-08-26T11:17:13.136Z,22.50
2022-08-26T11:19:59.372Z,22.60
2022-08-26T11:22:33.654Z,22.60
2022-08-26T11:25:04.230Z,22.60
2022-08-26T11:27:38.377Z,22.60
2022-08-26T11:30:15.628Z,22.60
2022-08-26T11:32:48.798Z,22.60
2022-08-26T11:35:21.841Z,22.70
2022-08-26T11:37:50.989Z,22.60
2022-08-26T11:40:26.564Z,22.70
2022-08-26T11:43:00.683Z,22.80
2022-08-26T11:45:41.725Z,22.80
2022-08-26T11:48:22.597Z,22.80
2022-08-26T11:50:56.655Z,22.80
2022-08-26T11:53:26.067Z,22.90
2022-08-26T11:55:55.528Z,22.90
2022-08-26T11:58:24.711Z,23.00
2022-08-26T12:00:58.061Z,23.00
2022-08-26T12:03:38.774Z,23.10
2022-08-26T12:06:43.414Z,23.20
2022-08-26T12:09:21.055Z,23.20
2022-08-26T12:11:47.928Z,23.30
2022-08-26T12:14:27.325Z,23.40
2022-08-26T12:16:55.324Z,23.40
2022-08-26T12:19:28.228Z,23.60
2022-08-26T12:22:23.771Z,23.60
2022-08-26T12:25:00.622Z,23.70
2022-08-26T12:27:29.139Z,23.80
2022-08-26T12:30:12.280Z,23.80
2022-08-26T12:32:51.011Z,23.80
2022-08-26T12:35:25.979Z,23.80
2022-08-26T12:37:55.250Z,23.80
2022-08-26T12:40:31.424Z,23.90
2022-08-26T12:43:01.884Z,24.00
2022-08-26T12:45:35.417Z,24.00
2022-08-26T12:48:07.964Z,24.10
2022-08-26T12:50:36.549Z,24.10
2022-08-26T12:53:25.180Z,24.10
2022-08-26T12:55:54.779Z,24.20
2022-08-26T12:58:39.505Z,24.20
2022-08-26T13:01:06.922Z,24.20
2022-08-26T13:03:45.566Z,24.20
2022-08-26T13:06:31.423Z,24.20
2022-08-26T13:09:00.024Z,24.30
2022-08-26T13:11:26.870Z,24.30
2022-08-26T13:14:03.287Z,24.30
2022-08-26T13:16:35.107Z,24.30
2022-08-26T13:19:05.492Z,24.40
2022-08-26T13:21:37.716Z,24.40
2022-08-26T13:24:12.176Z,24.40
2022-08-26T13:26:43.636Z,24.40
2022-08-26T13:29:11.168Z,24.40
2022-08-26T13:31:41.050Z,24.40
2022-08-26T13:34:10.481Z,24.50
2022-08-26T13:36:37.750Z,24.50
2022-08-26T13:39:06.052Z,24.50
2022-08-26T13:41:33.165Z,24.50
2022-08-26T13:44:00.088Z,24.50
2022-08-26T13:46:28.882Z,24.50
2022-08-26T13:48:57.622Z,24.60
2022-08-26T13:51:35.140Z,24.60
2022-08-26T13:54:14.694Z,24.60
2022-08-26T13:56:45.235Z,24.60
2022-08-26T13:59:12.077Z,24.60
2022-08-26T14:01:40.039Z,24.60
2022-08-26T14:04:07.264Z,24.60
2022-08-26T14:06:34.311Z,24.70
2022-08-26T14:09:01.221Z,24.70
2022-08-26T14:11:29.480Z,24.70
2022-08-26T14:14:06.138Z,24.70
2022-08-26T14:16:38.080Z,24.70
2022-08-26T14:19:24.964Z,24.70
2022-08-26T14:22:06.375Z,24.70
2022-08-26T14:24:33.350Z,24.70
2022-08-26T14:27:00.282Z,24.80
2022-08-26T14:29:28.302Z,24.80
2022-08-26T14:31:56.994Z,24.80
2022-08-26T14:34:24.802Z,24.80
2022-08-26T14:36:51.733Z,24.80
2022-08-26T14:39:18.608Z,24.80
2022-08-26T14:41:53.771Z,24.80
2022-08-26T14:44:24.311Z,24.90
2022-08-26T14:46:52.917Z,24.90
2022-08-26T14:49:21.268Z,24.90
2022-08-26T14:51:48.679Z,24.90
2022-08-26T14:54:17.329Z,24.80
2022-08-26T14:56:47.593Z,24.80
2022-08-26T14:59:17.816Z,24.80
2022-08-26T15:01:45.514Z,24.80
2022-08-26T15:04:13.064Z,24.80
2022-08-26T15:06:40.106Z,24.80
2022-08-26T15:09:07.966Z,24.80
2022-08-26T15:11:35.005Z,24.80
2022-08-26T15:14:02.625Z,24.80
2022-08-26T15:16:30.355Z,24.80
2022-08-26T15:18:57.698Z,24.80
2022-08-26T15:21:26.321Z,24.80
2022-08-26T15:23:54.032Z,24.80
2022-08-26T15:26:22.048Z,24.80
2022-08-26T15:28:49.634Z,24.80
2022-08-26T15:31:17.409Z,24.80
2022-08-26T15:33:44.498Z,24.80
2022-08-26T15:36:11.730Z,24.90
2022-08-26T15:38:42.302Z,24.90
2022-08-26T15:41:10.283Z,24.90
2022-08-26T15:43:38.361Z,24.90
2022-08-26T15:46:10.375Z,25.00
2022-08-26T15:48:38.390Z,25.00
2022-08-26T15:51:07.348Z,25.10
2022-08-26T15:53:35.387Z,25.10
2022-08-26T15:56:02.932Z,25.10
2022-08-26T15:58:30.531Z,25.10
2022-08-26T16:00:58.067Z,25.10
2022-08-26T16:03:25.020Z,25.10
2022-08-26T16:05:52.126Z,25.10
2022-08-26T16:08:19.356Z,25.00
2022-08-26T16:10:50.672Z,25.00
2022-08-26T16:13:40.073Z,25.00
2022-08-26T16:16:08.022Z,24.90
2022-08-26T16:18:34.980Z,24.90
2022-08-26T16:21:12.628Z,24.90
2022-08-26T16:23:47.631Z,24.90
2022-08-26T16:26:49.652Z,24.90
2022-08-26T16:29:20.721Z,24.80
2022-08-26T16:31:53.281Z,24.80
2022-08-26T16:34:20.490Z,24.70
2022-08-26T16:36:48.945Z,24.60
2022-08-26T16:39:16.063Z,24.60
2022-08-26T16:41:44.240Z,24.50
2022-08-26T16:44:11.989Z,24.50
2022-08-26T16:46:39.648Z,24.50
2022-08-26T16:49:06.916Z,24.40
2022-08-26T16:51:37.628Z,24.40
2022-08-26T16:54:05.906Z,24.40
2022-08-26T16:56:34.688Z,24.40
2022-08-26T16:59:05.050Z,24.30
2022-08-26T17:01:32.161Z,24.20
2022-08-26T17:03:59.163Z,24.20
2022-08-26T17:06:26.075Z,24.10
2022-08-26T17:08:53.077Z,24.00
2022-08-26T17:11:20.071Z,23.90
2022-08-26T17:13:47.290Z,23.80
2022-08-26T17:16:16.698Z,23.80
2022-08-26T17:18:44.183Z,23.70
2022-08-26T17:21:13.858Z,23.60
2022-08-26T17:23:41.761Z,23.40
2022-08-26T17:26:10.199Z,23.10
2022-08-26T17:28:37.119Z,22.80
2022-08-26T17:31:05.628Z,22.50
2022-08-26T17:33:35.472Z,22.50
2022-08-26T17:36:06.435Z,22.50
2022-08-26T17:38:33.487Z,22.50
2022-08-26T17:41:00.283Z,22.40
2022-08-26T17:43:28.040Z,22.40
2022-08-26T17:46:06.835Z,22.30
2022-08-26T17:48:35.057Z,22.30
2022-08-26T17:51:10.023Z,22.20
2022-08-26T17:53:37.519Z,22.20
2022-08-26T17:56:09.857Z,22.20
2022-08-26T17:58:37.232Z,22.20
2022-08-26T18:01:06.120Z,22.20
2022-08-26T18:03:34.344Z,22.20
2022-08-26T18:06:02.230Z,22.10
2022-08-26T18:08:29.162Z,22.10
2022-08-26T18:10:56.029Z,22.00
2022-08-26T18:13:22.881Z,22.00
2022-08-26T18:15:49.777Z,22.00
2022-08-26T18:18:16.804Z,22.00
2022-08-26T18:20:45.335Z,22.00
2022-08-26T18:23:16.495Z,21.90
2022-08-26T18:25:44.036Z,21.90
2022-08-26T18:28:11.547Z,21.80
2022-08-26T18:30:38.755Z,21.80
2022-08-26T18:33:05.737Z,21.80
2022-08-26T18:35:32.695Z,21.80
2022-08-26T18:38:10.670Z,21.80
2022-08-26T18:40:41.807Z,21.70
2022-08-26T18:43:09.257Z,21.70
2022-08-26T18:45:36.141Z,21.70
2022-08-26T18:48:03.763Z,21.60
2022-08-26T18:50:30.900Z,21.60
2022-08-26T18:52:57.815Z,21.60
2022-08-26T18:55:24.790Z,21.60
2022-08-26T18:57:51.627Z,21.60
2022-08-26T19:00:18.587Z,21.60
2022-08-26T19:02:46.991Z,21.60
2022-08-26T19:05:19.772Z,21.60
2022-08-26T19:10:49.338Z,21.50
2022-08-26T19:13:16.224Z,21.50
2022-08-26T19:15:45.707Z,21.50
2022-08-26T19:18:14.807Z,21.50
2022-08-26T19:20:46.465Z,21.50
2022-08-26T19:23:30.761Z,21.50
2022-08-26T19:25:58.845Z,21.40
2022-08-26T19:28:25.680Z,21.40
2022-08-26T19:30:53.237Z,21.40
2022-08-26T19:33:23.469Z,21.40
2022-08-26T19:35:50.427Z,21.30
2022-08-26T19:38:17.572Z,21.30
2022-08-26T19:40:44.472Z,21.30
2022-08-26T19:43:12.005Z,21.30
2022-08-26T19:45:39.013Z,21.30
2022-08-26T19:48:06.506Z,21.30
2022-08-26T19:50:34.769Z,21.30
2022-08-26T19:53:04.088Z,21.30
2022-08-26T19:55:31.335Z,21.20
2022-08-26T19:57:58.270Z,21.30
2022-08-26T20:00:29.768Z,21.20
2022-08-26T20:02:57.160Z,21.20
2022-08-26T20:05:25.375Z,21.20
2022-08-26T20:07:53.168Z,21.20
2022-08-26T20:10:22.893Z,21.20
2022-08-26T20:12:51.942Z,21.20
2022-08-26T20:15:20.905Z,21.20
2022-08-26T20:17:48.672Z,21.20
2022-08-26T20:20:35.239Z,21.10
2022-08-26T20:23:04.444Z,21.10
2022-08-26T20:25:32.810Z,21.10
2022-08-26T20:28:00.611Z,21.10
2022-08-26T20:30:28.199Z,21.10
2022-08-26T20:32:55.513Z,21.10
2022-08-26T20:35:23.904Z,21.10
2022-08-26T20:37:50.806Z,21.10
2022-08-26T20:40:17.964Z,21.10
2022-08-26T20:42:45.115Z,21.00
2022-08-26T20:45:12.343Z,21.00
2022-08-26T20:47:39.274Z,21.00
2022-08-26T20:50:08.070Z,21.00
2022-08-26T20:52:35.508Z,21.00
2022-08-26T20:55:02.521Z,21.00
2022-08-26T20:57:30.684Z,20.90
2022-08-26T20:59:57.830Z,20.90
2022-08-26T21:02:24.792Z,20.90
2022-08-26T21:04:51.801Z,20.90
2022-08-26T21:07:20.846Z,20.90
2022-08-26T21:09:49.196Z,20.90
2022-08-26T21:12:18.549Z,20.90
2022-08-26T21:14:49.059Z,20.90
2022-08-26T21:17:16.913Z,20.90
2022-08-26T21:19:44.433Z,20.90
2022-08-26T21:22:12.363Z,20.90
2022-08-26T21:24:39.276Z,20.90
2022-08-26T21:27:06.227Z,20.90
2022-08-26T21:29:33.168Z,20.90
2022-08-26T21:32:00.234Z,20.90
2022-08-26T21:34:27.116Z,20.80
2022-08-26T21:36:54.188Z,20.80
2022-08-26T21:39:21.244Z,20.80
2022-08-26T21:41:48.710Z,20.80
2022-08-26T21:44:17.242Z,20.70
2022-08-26T21:46:47.113Z,20.70
2022-08-26T21:49:18.275Z,20.70
2022-08-26T21:51:47.876Z,20.60
2022-08-26T21:54:24.237Z,20.60
2022-08-26T21:57:05.297Z,20.60
2022-08-26T21:59:33.109Z,20.60
2022-08-26T22:02:00.737Z,20.60
2022-08-26T22:04:29.862Z,20.60
2022-08-26T22:06:59.610Z,20.50
2022-08-26T22:09:31.886Z,20.50
2022-08-26T22:12:01.823Z,20.50
2022-08-26T22:15:15.187Z,20.50
2022-08-26T22:17:47.915Z,20.50
2022-08-26T22:20:16.449Z,20.50
2022-08-26T22:22:45.114Z,20.40
2022-08-26T22:25:12.350Z,20.40
2022-08-26T22:27:42.749Z,20.40
2022-08-26T22:30:11.785Z,20.40
2022-08-26T22:32:39.953Z,20.40
2022-08-26T22:35:28.011Z,20.30
2022-08-26T22:37:54.735Z,20.30
2022-08-26T22:40:24.553Z,20.30
2022-08-26T22:42:55.468Z,20.30
2022-08-26T22:45:25.945Z,20.30
2022-08-26T22:47:52.983Z,20.30
2022-08-26T22:50:19.998Z,20.30
2022-08-26T22:52:47.056Z,20.30
2022-08-26T22:55:16.968Z,20.30
2022-08-26T22:57:44.996Z,20.20
2022-08-26T23:00:13.906Z,20.20
2022-08-26T23:02:41.624Z,20.20
2022-08-26T23:05:09.922Z,20.20
2022-08-26T23:07:42.299Z,20.20
2022-08-26T23:10:15.081Z,20.20
2022-08-26T23:12:41.879Z,20.20
2022-08-26T23:15:14.666Z,20.20
2022-08-26T23:17:58.358Z,20.20
2022-08-26T23:20:27.040Z,20.20
2022-08-26T23:22:54.723Z,20.20
2022-08-26T23:25:22.617Z,20.20
2022-08-26T23:27:53.506Z,20.20
2022-08-26T23:30:24.603Z,20.20
2022-08-26T23:32:52.170Z,20.20
2022-08-26T23:35:21.604Z,20.20
2022-08-26T23:37:51.615Z,20.10
2022-08-26T23:40:32.825Z,20.10
2022-08-26T23:43:05.416Z,20.10
2022-08-26T23:45:34.827Z,20.10
2022-08-26T23:48:02.008Z,20.10
2022-08-26T23:50:50.022Z,20.10
2022-08-26T23:53:22.301Z,20.10
2022-08-26T23:55:51.412Z,20.10
2022-08-26T23:58:20.492Z,20.10
